Time;durP1;ratioP1;P1;durP2;ratioP2;P2;SDS_P1;SDS_P2;PMS_P1;PMS_P2;Temp;Humidity;BMP_temperature;BMP_pressure;BME280_temperature;BME280_humidity;BME280_pressure;Samples;Min_cycle;Max_cycle;Signal;HPM_P1;HPM_P2
2024/03/18 01:13:40;;;;;;;13.20;8.20;;;15.10;94.40;;;;;;5089419;28;20059;-73
2024/03/18 01:16:09;;;;;;;10.77;7.57;;;15.10;94.30;;;;;;4989001;28;20073;-80
2024/03/18 01:18:35;;;;;;;12.43;7.65;;;15.00;94.30;;;;;;4992827;28;20039;-81
2024/03/18 01:21:01;;;;;;;11.57;7.50;;;15.00;94.30;;;;;;4993709;28;20540;-78
2024/03/18 01:23:26;;;;;;;15.93;8.10;;;15.10;94.30;;;;;;4999003;28;20042;-79
2024/03/18 01:25:52;;;;;;;14.43;7.72;;;15.10;94.40;;;;;;4999536;28;20394;-79
2024/03/18 01:28:18;;;;;;;14.82;8.18;;;15.10;94.40;;;;;;4993140;28;20068;-79
2024/03/18 01:30:44;;;;;;;16.60;8.20;;;15.00;94.40;;;;;;4974926;28;20471;-79
2024/03/18 01:33:09;;;;;;;12.55;7.28;;;15.00;94.50;;;;;;4992067;28;20069;-79
2024/03/18 01:35:35;;;;;;;12.43;7.13;;;15.00;94.60;;;;;;4991569;28;20049;-78
2024/03/18 01:38:01;;;;;;;12.93;7.40;;;15.10;94.50;;;;;;4991165;28;20126;-78
2024/03/18 01:40:27;;;;;;;12.10;6.85;;;15.00;94.50;;;;;;4991132;28;20084;-78
2024/03/18 01:42:53;;;;;;;13.30;6.97;;;15.00;94.50;;;;;;4980612;28;20148;-79
2024/03/18 01:45:23;;;;;;;17.45;7.90;;;15.00;94.40;;;;;;4984179;28;20385;-79
2024/03/18 01:47:51;;;;;;;15.75;8.50;;;15.10;94.50;;;;;;4973424;28;20122;-77
2024/03/18 01:50:17;;;;;;;14.13;7.47;;;15.00;94.50;;;;;;4990803;28;20443;-80
2024/03/18 01:52:44;;;;;;;15.38;8.35;;;15.00;94.40;;;;;;4991010;28;20035;-79
2024/03/18 01:55:11;;;;;;;16.60;8.02;;;15.00;94.50;;;;;;4991031;28;20038;-78
2024/03/18 01:57:37;;;;;;;10.95;7.13;;;14.90;94.40;;;;;;4990672;28;20026;-78
2024/03/18 02:00:05;;;;;;;11.70;6.90;;;14.90;94.40;;;;;;4973101;28;20045;-78
2024/03/18 02:02:31;;;;;;;14.43;7.25;;;14.90;94.30;;;;;;4990714;28;20026;-79
2024/03/18 02:04:57;;;;;;;13.05;7.05;;;14.80;94.10;;;;;;4990642;28;20042;-77
2024/03/18 02:07:27;;;;;;;14.90;7.00;;;14.80;94.10;;;;;;4990546;28;20422;-78
2024/03/18 02:09:53;;;;;;;10.70;6.18;;;14.80;94.00;;;;;;4990393;28;20043;-78
2024/03/18 02:12:19;;;;;;;10.57;6.43;;;14.80;93.90;;;;;;4990258;28;20130;-78
2024/03/18 02:14:51;;;;;;;10.52;6.45;;;14.80;93.80;;;;;;5044864;28;20154;-78
2024/03/18 02:17:20;;;;;;;10.68;5.95;;;14.80;93.80;;;;;;5094480;28;20028;-79
2024/03/18 02:19:46;;;;;;;12.82;6.38;;;14.80;93.70;;;;;;5093606;28;20407;-77
2024/03/18 02:22:12;;;;;;;12.75;6.65;;;14.80;93.60;;;;;;5092457;28;20375;-78
2024/03/18 02:24:38;;;;;;;11.73;6.75;;;14.90;93.60;;;;;;5074103;28;20043;-78
2024/03/18 02:27:09;;;;;;;16.52;6.75;;;14.80;93.50;;;;;;5091734;28;20028;-77
2024/03/18 02:29:35;;;;;;;11.48;7.00;;;14.90;93.50;;;;;;5092183;28;20036;-78
2024/03/18 02:32:00;;;;;;;12.57;6.97;;;14.90;93.40;;;;;;5092314;28;20366;-78
2024/03/18 02:34:26;;;;;;;9.85;6.75;;;14.90;93.30;;;;;;5091585;28;20094;-79
2024/03/18 02:36:52;;;;;;;10.75;7.10;;;15.00;93.30;;;;;;5092416;28;20028;-77
2024/03/18 02:39:24;;;;;;;12.90;8.10;;;14.90;93.20;;;;;;5092539;28;20498;-77
2024/03/18 02:41:54;;;;;;;13.98;7.60;;;14.90;93.20;;;;;;5074304;28;20414;-77
2024/03/18 02:44:22;;;;;;;11.57;7.57;;;14.90;93.20;;;;;;5091905;28;20062;-77
2024/03/18 02:46:48;;;;;;;12.25;6.72;;;15.00;93.20;;;;;;5091997;28;20052;-78
2024/03/18 02:49:14;;;;;;;12.02;6.90;;;14.90;93.20;;;;;;5092011;28;20086;-77
2024/03/18 02:51:40;;;;;;;14.13;8.05;;;15.00;93.10;;;;;;5091588;28;20356;-78
2024/03/18 02:54:06;;;;;;;12.15;6.70;;;14.90;93.10;;;;;;5092037;28;20116;-79
2024/03/18 02:56:32;;;;;;;11.48;7.00;;;14.90;93.10;;;;;;5091389;28;20115;-78
2024/03/18 02:58:58;;;;;;;11.27;7.00;;;14.90;93.10;;;;;;5092016;28;20043;-78
2024/03/18 03:01:25;;;;;;;14.02;7.15;;;14.90;93.00;;;;;;5091590;28;20040;-78
2024/03/18 03:03:57;;;;;;;9.70;6.45;;;14.90;93.00;;;;;;5091575;28;20040;-76
2024/03/18 03:06:23;;;;;;;12.68;7.47;;;14.90;92.90;;;;;;5091934;28;20024;-78
2024/03/18 03:08:49;;;;;;;11.68;7.18;;;14.80;92.90;;;;;;5073148;28;20040;-79
2024/03/18 03:11:15;;;;;;;12.13;7.38;;;14.80;92.90;;;;;;5091794;28;20040;-78
2024/03/18 03:13:41;;;;;;;14.57;7.80;;;14.80;92.90;;;;;;5091646;28;20046;-77
2024/03/18 03:16:11;;;;;;;12.55;7.47;;;14.80;92.90;;;;;;5092161;28;20043;-78
2024/03/18 03:18:36;;;;;;;10.88;7.05;;;14.80;92.90;;;;;;5091896;28;20103;-79
2024/03/18 03:21:05;;;;;;;11.20;7.68;;;14.80;92.90;;;;;;5091597;28;20514;-78
2024/03/18 03:23:35;;;;;;;15.05;7.82;;;14.90;92.90;;;;;;5091782;28;20040;-78
2024/03/18 03:26:01;;;;;;;12.27;7.05;;;14.80;92.70;;;;;;5073582;28;20036;-79
2024/03/18 03:28:28;;;;;;;13.70;7.85;;;14.80;92.70;;;;;;5073469;28;20032;-78
2024/03/18 03:31:08;;;;;;;14.00;8.23;;;14.70;92.70;;;;;;5091663;28;20047;-78
2024/03/18 03:33:34;;;;;;;12.35;7.53;;;14.70;92.70;;;;;;5091144;28;20028;-78
2024/03/18 03:36:03;;;;;;;12.88;8.02;;;14.70;92.70;;;;;;5091675;28;20115;-78
2024/03/18 03:38:29;;;;;;;13.77;8.20;;;14.60;92.60;;;;;;5091714;28;20035;-79
2024/03/18 03:40:55;;;;;;;14.93;8.27;;;14.60;92.50;;;;;;5098905;28;20036;-77
2024/03/18 03:43:22;;;;;;;13.07;8.20;;;14.60;92.50;;;;;;5094057;28;20028;-77
2024/03/18 03:45:57;;;;;;;11.85;7.82;;;14.60;92.40;;;;;;5092816;28;20036;-78
2024/03/18 03:48:23;;;;;;;14.35;8.02;;;14.50;92.50;;;;;;5092095;28;20061;-79
2024/03/18 03:50:50;;;;;;;13.10;8.75;;;14.60;92.40;;;;;;5091470;28;20526;-78
2024/03/18 03:53:19;;;;;;;16.67;9.18;;;14.50;92.20;;;;;;5091533;28;20032;-78
2024/03/18 03:55:46;;;;;;;13.80;8.80;;;14.50;92.20;;;;;;5091453;28;20103;-78
2024/03/18 03:58:12;;;;;;;13.60;8.95;;;14.40;92.10;;;;;;5073373;28;20032;-79
2024/03/18 04:00:47;;;;;;;13.73;8.63;;;14.40;92.20;;;;;;5091406;28;20082;-78
2024/03/18 04:03:15;;;;;;;17.38;9.05;;;14.40;92.10;;;;;;5073132;28;20115;-79
2024/03/18 04:05:41;;;;;;;17.70;9.20;;;14.40;92.00;;;;;;5091219;28;20035;-79
2024/03/18 04:08:07;;;;;;;13.52;8.45;;;14.40;91.90;;;;;;5091524;28;20430;-79
2024/03/18 04:10:33;;;;;;;14.82;10.05;;;14.40;92.10;;;;;;5091572;28;20165;-79
2024/03/18 04:12:58;;;;;;;15.38;8.93;;;14.40;91.80;;;;;;5091396;28;20365;-79
2024/03/18 04:15:24;;;;;;;17.10;8.75;;;14.30;91.60;;;;;;5091106;28;20059;-79
2024/03/18 04:17:50;;;;;;;14.73;9.15;;;14.30;91.60;;;;;;5116623;22;20143;-79
2024/03/18 04:20:21;;;;;;;15.10;8.88;;;14.30;91.50;;;;;;5115541;28;20035;-79
2024/03/18 04:22:51;;;;;;;16.35;9.13;;;14.30;91.50;;;;;;5115368;28;20047;-79
2024/03/18 04:25:18;;;;;;;15.35;8.63;;;14.30;91.30;;;;;;5115705;28;20081;-79
2024/03/18 04:27:47;;;;;;;12.35;7.78;;;14.30;91.20;;;;;;5121335;28;20043;-79
2024/03/18 04:30:16;;;;;;;16.27;8.48;;;14.20;91.00;;;;;;5126058;28;20106;-79
2024/03/18 04:32:47;;;;;;;12.63;7.80;;;14.20;91.00;;;;;;5115781;28;20084;-79
2024/03/18 04:35:13;;;;;;;12.05;8.32;;;14.20;91.00;;;;;;5115654;28;20035;-80
2024/03/18 04:37:45;;;;;;;16.85;8.45;;;14.20;90.90;;;;;;5116031;28;20023;-79
2024/03/18 04:40:12;;;;;;;17.73;8.70;;;14.20;90.90;;;;;;5114922;28;20032;-79
2024/03/18 04:42:41;;;;;;;15.15;7.78;;;14.10;90.90;;;;;;5114582;28;20068;-79
2024/03/18 04:45:07;;;;;;;15.07;8.63;;;14.10;90.90;;;;;;5115052;28;20085;-78
2024/03/18 04:47:40;;;;;;;11.68;8.25;;;14.00;90.90;;;;;;5115944;28;20105;-78
2024/03/18 04:50:12;;;;;;;14.70;8.47;;;14.00;90.90;;;;;;5117423;28;20483;-79
2024/03/18 04:52:38;;;;;;;15.88;8.70;;;14.00;90.90;;;;;;5112507;28;20281;-78
2024/03/18 04:55:06;;;;;;;12.82;7.88;;;14.00;90.90;;;;;;5104457;28;20080;-78
2024/03/18 04:57:35;;;;;;;12.40;8.23;;;13.90;90.80;;;;;;5094270;28;20029;-79
2024/03/18 05:00:06;;;;;;;16.83;8.27;;;13.90;90.70;;;;;;5104740;28;20030;-78
2024/03/18 05:02:32;;;;;;;11.25;7.90;;;13.90;90.90;;;;;;5117264;28;20386;-80
2024/03/18 05:04:57;;;;;;;14.07;8.77;;;13.90;90.80;;;;;;5117870;28;20119;-79
2024/03/18 05:07:23;;;;;;;12.07;8.20;;;13.90;90.70;;;;;;5094085;28;20310;-79
2024/03/18 05:09:53;;;;;;;15.77;8.50;;;13.90;90.80;;;;;;5093713;28;20043;-78
2024/03/18 05:12:19;;;;;;;14.18;8.55;;;13.90;90.70;;;;;;5093844;28;20063;-77
2024/03/18 05:14:45;;;;;;;14.32;7.90;;;13.90;90.70;;;;;;5094307;28;20068;-78
2024/03/18 05:17:10;;;;;;;16.13;8.15;;;14.00;90.70;;;;;;5093717;28;20084;-78
2024/03/18 05:19:36;;;;;;;11.15;8.40;;;14.00;90.60;;;;;;5095384;28;21270;-79
2024/03/18 05:22:02;;;;;;;14.85;8.55;;;14.00;90.50;;;;;;5094628;28;20232;-79
2024/03/18 05:24:28;;;;;;;16.00;8.27;;;14.00;90.50;;;;;;5075663;28;20032;-78
2024/03/18 05:26:54;;;;;;;13.95;8.10;;;14.00;90.50;;;;;;5093462;28;20032;-79
2024/03/18 05:29:19;;;;;;;14.60;7.90;;;14.00;90.40;;;;;;5075342;28;20090;-79
2024/03/18 05:31:46;;;;;;;16.50;8.70;;;14.00;90.30;;;;;;5093204;28;20048;-79
2024/03/18 05:34:12;;;;;;;14.65;8.50;;;13.90;90.30;;;;;;5093696;28;20028;-77
2024/03/18 05:36:38;;;;;;;15.23;8.52;;;13.90;90.40;;;;;;5075472;28;20059;-79
2024/03/18 05:39:04;;;;;;;15.13;7.85;;;14.00;90.30;;;;;;5093400;28;20036;-80
2024/03/18 05:41:30;;;;;;;14.82;8.25;;;14.00;90.30;;;;;;5093269;28;20036;-78
2024/03/18 05:43:55;;;;;;;12.32;7.60;;;13.90;90.20;;;;;;5093491;28;20040;-78
2024/03/18 05:46:22;;;;;;;16.23;8.52;;;14.00;90.30;;;;;;5093706;28;20190;-78
2024/03/18 05:48:48;;;;;;;17.02;8.10;;;14.00;90.20;;;;;;5096995;28;20074;-80
2024/03/18 05:51:14;;;;;;;15.77;7.95;;;14.10;90.20;;;;;;5097893;28;20391;-78
2024/03/18 05:53:40;;;;;;;13.95;7.53;;;14.20;90.10;;;;;;5075240;28;20036;-80
2024/03/18 05:56:06;;;;;;;17.25;8.40;;;14.20;90.00;;;;;;5094208;28;20036;-80
2024/03/18 05:58:39;;;;;;;13.00;7.40;;;14.30;90.00;;;;;;5094684;28;20028;-80
2024/03/18 06:01:10;;;;;;;15.43;8.20;;;14.40;89.90;;;;;;5093688;28;20031;-79
2024/03/18 06:03:39;;;;;;;14.85;8.23;;;14.40;89.40;;;;;;5093703;28;20092;-79
2024/03/18 06:06:09;;;;;;;13.18;7.65;;;14.40;89.60;;;;;;5093587;28;20032;-79
2024/03/18 06:08:36;;;;;;;17.65;8.05;;;14.40;89.60;;;;;;5093075;28;20107;-78
2024/03/18 06:11:02;;;;;;;12.88;8.45;;;14.40;89.90;;;;;;5092861;28;20052;-78
2024/03/18 06:13:28;;;;;;;15.25;8.25;;;14.40;89.90;;;;;;5093223;28;20039;-79
2024/03/18 06:15:55;;;;;;;16.13;7.63;;;14.50;89.80;;;;;;5093180;28;20053;-79
2024/03/18 06:18:20;;;;;;;19.05;7.70;;;14.60;89.60;;;;;;5093163;28;20113;-79
2024/03/18 06:20:50;;;;;;;14.00;6.97;;;14.60;89.50;;;;;;5092697;28;20467;-79
2024/03/18 06:23:22;;;;;;;15.13;7.78;;;14.70;89.30;;;;;;5092389;28;20372;-78
2024/03/18 06:25:58;;;;;;;13.35;7.60;;;14.70;89.60;;;;;;5093309;28;20055;-78
2024/03/18 06:28:28;;;;;;;12.07;7.47;;;14.70;89.70;;;;;;5092763;28;20491;-78
2024/03/18 06:30:58;;;;;;;14.15;7.60;;;14.70;89.70;;;;;;5092443;28;20433;-79
2024/03/18 06:33:25;;;;;;;14.07;8.15;;;14.70;89.70;;;;;;5092425;28;20036;-79
2024/03/18 06:35:57;;;;;;;13.80;7.88;;;14.70;89.90;;;;;;5092684;28;20051;-79
2024/03/18 06:38:23;;;;;;;15.48;7.97;;;14.70;89.80;;;;;;5092586;28;20032;-78
2024/03/18 06:40:50;;;;;;;16.60;8.50;;;14.70;90.00;;;;;;5093217;28;20028;-79
2024/03/18 06:43:16;;;;;;;17.08;8.50;;;14.80;90.00;;;;;;5095358;28;20032;-78
2024/03/18 06:45:42;;;;;;;20.88;12.57;;;14.70;89.90;;;;;;5095266;28;20039;-79
2024/03/18 06:48:08;;;;;;;20.17;11.88;;;14.80;90.00;;;;;;5096372;28;20028;-79
2024/03/18 06:50:38;;;;;;;17.52;8.75;;;14.80;90.00;;;;;;5093060;28;20051;-80
2024/03/18 06:53:05;;;;;;;17.83;7.80;;;14.80;90.00;;;;;;5093025;28;20047;-80
2024/03/18 06:55:40;;;;;;;17.65;9.40;;;14.80;90.00;;;;;;5093256;28;20035;-79
2024/03/18 06:58:05;;;;;;;24.52;9.73;;;14.90;89.90;;;;;;5093749;28;20024;-81
2024/03/18 07:00:32;;;;;;;31.27;14.23;;;14.90;90.00;;;;;;5093485;28;20032;-79
2024/03/18 07:02:58;;;;;;;22.02;9.40;;;15.00;90.00;;;;;;5093529;28;20035;-80
2024/03/18 07:05:24;;;;;;;22.38;8.75;;;15.00;90.00;;;;;;5092862;28;20036;-80
2024/03/18 07:07:51;;;;;;;29.00;9.65;;;15.10;90.00;;;;;;5096789;28;20024;-80
2024/03/18 07:10:17;;;;;;;20.33;9.13;;;15.20;89.80;;;;;;5098376;28;20040;-80
2024/03/18 07:12:44;;;;;;;16.13;9.27;;;15.30;89.80;;;;;;5092486;28;20494;-80
2024/03/18 07:15:12;;;;;;;16.85;8.32;;;15.40;89.80;;;;;;5092643;28;20111;-81
2024/03/18 07:17:38;;;;;;;16.70;8.75;;;15.50;89.60;;;;;;5092339;28;20491;-79
2024/03/18 07:20:08;;;;;;;16.58;9.73;;;15.60;89.60;;;;;;5074624;28;20111;-81
2024/03/18 07:22:34;;;;;;;17.33;8.45;;;15.70;89.20;;;;;;5095631;28;20021;-81
2024/03/18 07:25:00;;;;;;;21.00;8.15;;;15.80;88.90;;;;;;5092863;28;20036;-80
2024/03/18 07:27:26;;;;;;;12.07;6.45;;;15.90;88.70;;;;;;5091957;28;20030;-78
2024/03/18 07:29:56;;;;;;;17.05;6.35;;;16.10;88.50;;;;;;5092057;28;20178;-80
2024/03/18 07:32:24;;;;;;;16.95;6.80;;;16.20;88.10;;;;;;5092257;28;20416;-80
2024/03/18 07:34:50;;;;;;;19.88;6.57;;;16.40;88.20;;;;;;5092164;28;20475;-80
2024/03/18 07:37:17;;;;;;;17.02;6.90;;;16.50;87.60;;;;;;5092659;28;20063;-81
2024/03/18 07:39:42;;;;;;;11.63;5.25;;;16.60;87.50;;;;;;5092594;28;20024;-78
2024/03/18 07:42:08;;;;;;;15.02;5.38;;;16.70;87.40;;;;;;5075144;28;20036;-81
2024/03/18 07:44:34;;;;;;;23.15;6.15;;;16.70;87.50;;;;;;5092203;28;20028;-80
2024/03/18 07:46:59;;;;;;;12.52;5.70;;;16.70;87.50;;;;;;5074217;28;20036;-80
2024/03/18 07:49:25;;;;;;;14.88;6.20;;;16.70;87.70;;;;;;5092197;28;20024;-80
2024/03/18 07:51:51;;;;;;;37.78;8.15;;;16.80;87.80;;;;;;5078007;28;20487;-81
2024/03/18 07:54:16;;;;;;;28.85;8.20;;;16.80;87.90;;;;;;5077553;28;20039;-79
2024/03/18 07:56:42;;;;;;;29.02;7.38;;;16.80;88.10;;;;;;5094387;28;20134;-77
2024/03/18 07:59:08;;;;;;;23.10;7.35;;;16.80;88.40;;;;;;5100206;28;20047;-79
2024/03/18 08:01:37;;;;;;;22.70;7.35;;;16.80;88.60;;;;;;5113059;28;20092;-77
2024/03/18 08:04:02;;;;;;;22.70;7.38;;;16.80;88.80;;;;;;5115695;28;20047;-80
2024/03/18 08:06:28;;;;;;;21.02;7.60;;;16.70;89.10;;;;;;5115495;28;20455;-78
2024/03/18 08:08:54;;;;;;;19.13;6.75;;;16.80;89.40;;;;;;5115565;28;20031;-78
2024/03/18 08:11:20;;;;;;;19.73;6.80;;;16.80;89.40;;;;;;5114053;28;20054;-79
2024/03/18 08:13:46;;;;;;;25.20;6.90;;;16.90;89.50;;;;;;5115591;28;20035;-79
2024/03/18 08:16:11;;;;;;;21.33;6.32;;;16.90;89.70;;;;;;5108531;28;20503;-81
2024/03/18 08:18:37;;;;;;;18.52;5.78;;;17.00;89.90;;;;;;5099803;28;20092;-80
2024/03/18 08:21:03;;;;;;;20.35;5.30;;;17.00;90.00;;;;;;5094807;28;20059;-77
2024/03/18 08:23:29;;;;;;;19.00;5.82;;;17.00;90.00;;;;;;5111180;28;20035;-78
2024/03/18 08:25:55;;;;;;;13.18;5.05;;;16.90;90.20;;;;;;5112922;28;20035;-78
2024/03/18 08:28:21;;;;;;;22.45;4.97;;;16.90;90.40;;;;;;5100113;28;20036;-77
2024/03/18 08:30:46;;;;;;;17.73;4.43;;;16.80;90.40;;;;;;5094624;28;20051;-78
2024/03/18 08:33:12;;;;;;;17.50;5.03;;;16.80;90.60;;;;;;5094653;28;20506;-77
2024/03/18 08:35:38;;;;;;;21.10;5.20;;;16.80;90.70;;;;;;5094729;28;20028;-76
2024/03/18 08:38:04;;;;;;;19.55;5.07;;;16.90;90.80;;;;;;5105828;28;20466;-78
2024/03/18 08:40:30;;;;;;;15.75;4.63;;;16.90;90.70;;;;;;5098729;28;20487;-78
2024/03/18 08:42:55;;;;;;;14.20;4.38;;;16.90;90.60;;;;;;5115008;28;20084;-76
2024/03/18 08:45:21;;;;;;;19.98;4.85;;;17.00;90.60;;;;;;5113929;28;20483;-79
2024/03/18 08:47:47;;;;;;;15.35;4.45;;;17.00;90.60;;;;;;5097659;28;20120;-80
2024/03/18 08:50:13;;;;;;;16.67;4.40;;;17.10;90.40;;;;;;5096599;28;20032;-76
2024/03/18 08:52:39;;;;;;;18.30;4.13;;;17.20;90.40;;;;;;5097785;28;20039;-77
2024/03/18 08:55:05;;;;;;;15.18;4.35;;;17.20;90.40;;;;;;5094219;28;20028;-78
2024/03/18 08:57:31;;;;;;;12.00;4.00;;;17.30;90.30;;;;;;5094494;28;20115;-80
2024/03/18 08:59:57;;;;;;;19.70;5.20;;;17.30;90.30;;;;;;5097768;28;20501;-75
2024/03/18 09:02:23;;;;;;;11.85;4.32;;;17.30;90.20;;;;;;5113806;28;20491;-78
2024/03/18 09:04:48;;;;;;;17.10;5.22;;;17.40;90.20;;;;;;5084401;28;20036;-75
2024/03/18 09:07:14;;;;;;;14.75;5.07;;;17.30;90.20;;;;;;5083590;28;20042;-76
2024/03/18 09:09:40;;;;;;;15.52;4.72;;;17.30;90.20;;;;;;5085398;28;20042;-74
2024/03/18 09:12:06;;;;;;;16.23;5.10;;;17.30;90.20;;;;;;5095639;28;20044;-80
2024/03/18 09:14:32;;;;;;;17.00;4.90;;;17.30;90.20;;;;;;5111794;28;20452;-74
2024/03/18 09:17:01;;;;;;;14.93;5.68;;;17.40;90.20;;;;;;5104735;28;20062;-72
2024/03/18 09:19:30;;;;;;;20.73;6.05;;;17.40;90.30;;;;;;5095526;28;20054;-75
2024/03/18 09:21:56;;;;;;;19.08;5.63;;;17.50;90.30;;;;;;5113633;28;20030;-76
2024/03/18 09:24:23;;;;;;;21.25;5.80;;;17.50;90.20;;;;;;5113275;28;20479;-74
2024/03/18 09:26:49;;;;;;;19.85;6.45;;;17.50;90.20;;;;;;5114065;28;20034;-80
2024/03/18 09:29:14;;;;;;;16.10;5.60;;;17.50;90.30;;;;;;5103635;28;20044;-80
2024/03/18 09:31:42;;;;;;;13.77;5.47;;;17.50;90.20;;;;;;5093319;28;20044;-74
2024/03/18 09:34:09;;;;;;;20.92;5.90;;;17.40;90.30;;;;;;5093029;28;20043;-73
2024/03/18 09:36:35;;;;;;;19.45;6.13;;;17.50;90.40;;;;;;5092677;28;20070;-76
2024/03/18 09:39:01;;;;;;;20.63;6.30;;;17.50;90.40;;;;;;5099370;28;20068;-75
2024/03/18 09:41:27;;;;;;;14.80;5.47;;;17.50;90.30;;;;;;5113718;28;20031;-73
2024/03/18 09:43:53;;;;;;;20.83;6.55;;;17.50;90.30;;;;;;5087732;28;20039;-74
2024/03/18 09:46:19;;;;;;;17.48;5.72;;;17.60;90.20;;;;;;5102834;28;20372;-80
2024/03/18 09:48:45;;;;;;;18.38;5.82;;;17.70;90.30;;;;;;5113115;28;20032;-76
2024/03/18 09:51:17;;;;;;;21.67;5.88;;;17.80;90.20;;;;;;5108641;28;20043;-74
2024/03/18 09:53:47;;;;;;;12.52;5.20;;;17.80;90.00;;;;;;5113000;28;20402;-73
2024/03/18 09:56:18;;;;;;;14.85;4.90;;;17.90;89.80;;;;;;5112597;28;20028;-73
2024/03/18 09:58:44;;;;;;;13.27;4.90;;;18.00;89.30;;;;;;5112910;28;20440;-77
2024/03/18 10:01:13;;;;;;;22.38;4.97;;;18.10;89.00;;;;;;5094334;28;20559;-75
2024/03/18 10:03:41;;;;;;;18.55;5.05;;;18.30;88.20;;;;;;5109313;28;20032;-71
2024/03/18 10:06:08;;;;;;;13.30;5.80;;;18.40;87.60;;;;;;5108568;28;20076;-73
2024/03/18 10:08:35;;;;;;;15.35;5.18;;;18.50;87.30;;;;;;5103387;28;20063;-71
2024/03/18 10:11:01;;;;;;;22.20;6.13;;;18.70;86.90;;;;;;5093671;28;20032;-72
2024/03/18 10:13:27;;;;;;;16.17;6.03;;;18.90;86.50;;;;;;5109786;28;20031;-72
2024/03/18 10:15:53;;;;;;;12.77;4.50;;;18.90;85.80;;;;;;5112898;28;20115;-71
2024/03/18 10:18:19;;;;;;;15.65;4.38;;;19.00;85.60;;;;;;5112449;28;20070;-71
2024/03/18 10:20:44;;;;;;;13.10;4.72;;;19.00;85.20;;;;;;5112663;28;20028;-73
2024/03/18 10:23:16;;;;;;;17.75;4.22;;;18.90;85.60;;;;;;5111738;28;20395;-72
2024/03/18 10:25:42;;;;;;;17.58;4.22;;;18.80;84.90;;;;;;5111302;28;20106;-73
2024/03/18 10:28:09;;;;;;;19.70;4.97;;;18.80;85.00;;;;;;5111805;28;20055;-73
2024/03/18 10:30:37;;;;;;;13.40;5.65;;;18.70;85.20;;;;;;5111147;28;20105;-72
2024/03/18 10:33:09;;;;;;;16.30;5.35;;;18.60;85.30;;;;;;5112032;28;20485;-74
2024/03/18 10:35:36;;;;;;;16.25;5.40;;;18.50;85.40;;;;;;5112466;28;20035;-73
2024/03/18 10:38:04;;;;;;;16.95;5.78;;;18.40;85.60;;;;;;5112183;28;20112;-73
2024/03/18 10:40:38;;;;;;;16.25;5.35;;;18.30;85.50;;;;;;5112169;28;20035;-71
2024/03/18 10:43:06;;;;;;;13.77;5.05;;;18.30;86.20;;;;;;5112538;28;20032;-71
2024/03/18 10:45:32;;;;;;;18.70;5.18;;;18.30;85.90;;;;;;5111689;28;20032;-71
2024/03/18 10:48:03;;;;;;;14.50;4.95;;;18.20;85.60;;;;;;5112161;28;20054;-73
2024/03/18 10:50:29;;;;;;;12.40;5.38;;;18.20;85.60;;;;;;5093285;28;20039;-70
2024/03/18 10:52:56;;;;;;;13.57;5.05;;;18.20;85.50;;;;;;5112666;28;20035;-71
2024/03/18 10:55:23;;;;;;;15.43;5.43;;;18.30;85.60;;;;;;5094091;28;20031;-71
2024/03/18 10:57:51;;;;;;;12.80;5.45;;;18.20;85.60;;;;;;5112394;28;20028;-72
2024/03/18 11:00:18;;;;;;;15.68;6.15;;;18.20;85.90;;;;;;5111744;28;20036;-70
2024/03/18 11:02:57;;;;;;;18.50;6.53;;;18.10;86.00;;;;;;5094134;28;20067;-73
2024/03/18 11:05:33;;;;;;;15.60;5.97;;;18.20;86.00;;;;;;5091664;28;20036;-73
2024/03/18 11:08:09;;;;;;;15.80;6.00;;;18.30;86.10;;;;;;5106085;28;20040;-72
2024/03/18 11:10:38;;;;;;;11.68;5.32;;;18.30;86.20;;;;;;5111660;28;20181;-74
2024/03/18 11:13:34;;;;;;;14.65;5.85;;;18.40;86.30;;;;;;5091605;28;20043;-72
2024/03/18 11:16:09;;;;;;;14.65;5.72;;;18.40;86.70;;;;;;5073362;28;20493;-72
2024/03/18 11:18:45;;;;;;;15.82;6.07;;;18.50;86.10;;;;;;5091646;28;20051;-71
2024/03/18 11:21:24;;;;;;;15.02;6.00;;;18.60;86.40;;;;;;5092857;28;20017;-74
2024/03/18 11:24:01;;;;;;;15.00;6.00;;;18.50;86.20;;;;;;5091397;28;20181;-74
2024/03/18 11:26:28;;;;;;;17.92;6.25;;;18.40;86.90;;;;;;5096623;28;20039;-72
2024/03/18 11:29:29;;;;;;;15.75;6.47;;;18.40;86.70;;;;;;5116267;28;20042;-73
2024/03/18 11:31:58;;;;;;;12.30;6.47;;;18.50;86.60;;;;;;5098810;28;20068;-76
2024/03/18 11:34:25;;;;;;;16.90;6.30;;;18.40;86.90;;;;;;5114366;28;20431;-75
2024/03/18 11:36:51;;;;;;;19.40;6.30;;;18.50;86.90;;;;;;5096819;28;20038;-73
2024/03/18 11:39:17;;;;;;;17.80;6.43;;;18.50;87.00;;;;;;5105386;28;20414;-74
2024/03/18 11:41:44;;;;;;;15.38;5.75;;;18.50;86.90;;;;;;5108717;28;20142;-75
2024/03/18 11:44:13;;;;;;;19.83;6.45;;;18.60;87.10;;;;;;5115944;28;20070;-75
2024/03/18 11:46:40;;;;;;;14.30;6.05;;;18.70;87.20;;;;;;5116196;28;20040;-77
2024/03/18 11:49:07;;;;;;;13.70;5.10;;;18.70;87.00;;;;;;5116079;28;20043;-75
2024/03/18 11:51:36;;;;;;;18.77;4.97;;;18.70;86.90;;;;;;5096887;28;20478;-73
2024/03/18 11:54:06;;;;;;;14.85;4.90;;;18.80;86.70;;;;;;5115829;28;20142;-75
2024/03/18 11:56:32;;;;;;;12.60;4.20;;;18.90;86.60;;;;;;5115370;28;20049;-71
2024/03/18 11:58:59;;;;;;;11.93;4.60;;;18.90;86.30;;;;;;5115491;28;20032;-72
2024/03/18 12:01:30;;;;;;;19.65;4.40;;;18.90;86.10;;;;;;5114556;28;20378;-73
2024/03/18 12:03:56;;;;;;;14.00;3.80;;;18.90;85.80;;;;;;5112985;28;20483;-74
2024/03/18 12:06:22;;;;;;;11.25;3.70;;;18.90;85.80;;;;;;5115360;28;20111;-73
2024/03/18 12:08:49;;;;;;;28.13;14.50;;;18.90;85.80;;;;;;5115227;28;20031;-69
2024/03/18 12:11:15;;;;;;;36.00;20.75;;;19.00;85.80;;;;;;5115110;28;20044;-70
2024/03/18 12:13:41;;;;;;;43.75;19.52;;;19.00;85.70;;;;;;5115115;28;20031;-69
2024/03/18 12:16:12;;;;;;;32.70;15.48;;;19.10;85.60;;;;;;5114893;28;20137;-70
2024/03/18 12:18:38;;;;;;;26.92;15.50;;;19.10;85.40;;;;;;5115138;28;20456;-71
2024/03/18 12:21:03;;;;;;;31.10;10.00;;;19.10;85.50;;;;;;5115496;28;20032;-70
2024/03/18 12:29:07;;;;;;;18.73;4.45;;;19.00;85.40;;;;;;5115141;28;20449;-74
2024/03/18 12:31:34;;;;;;;14.85;4.63;;;18.90;85.30;;;;;;5108149;28;20040;-73
2024/03/18 12:34:01;;;;;;;12.35;4.35;;;18.80;85.30;;;;;;5084556;28;20050;-73
2024/03/18 12:36:26;;;;;;;42.40;25.05;;;18.70;85.50;;;;;;5109867;28;20032;-75
2024/03/18 12:38:54;;;;;;;17.73;5.97;;;18.60;85.50;;;;;;5114980;28;20027;-73
2024/03/18 12:41:21;;;;;;;11.90;4.40;;;18.50;85.70;;;;;;5115237;28;20023;-75
2024/03/18 12:43:48;;;;;;;15.65;4.97;;;18.50;85.90;;;;;;5114668;28;20066;-73
2024/03/18 12:46:18;;;;;;;15.60;4.88;;;18.30;85.80;;;;;;5107630;28;20032;-73
2024/03/18 12:48:45;;;;;;;17.40;4.60;;;18.30;86.10;;;;;;5113726;28;20096;-78
2024/03/18 12:51:16;;;;;;;12.60;3.92;;;18.30;86.20;;;;;;5112321;28;20039;-74
2024/03/18 12:53:43;;;;;;;20.02;7.63;;;18.20;86.20;;;;;;5113681;28;20027;-75
2024/03/18 12:56:09;;;;;;;16.52;7.40;;;18.20;86.20;;;;;;5114481;28;20032;-75
2024/03/18 12:58:35;;;;;;;19.27;4.95;;;18.30;86.50;;;;;;5096104;28;20060;-78
2024/03/18 13:01:02;;;;;;;18.27;5.55;;;18.40;86.40;;;;;;5114376;28;20032;-75
2024/03/18 13:03:27;;;;;;;12.98;4.43;;;18.40;85.90;;;;;;5114516;28;20032;-74
2024/03/18 13:05:53;;;;;;;14.90;4.15;;;18.50;85.60;;;;;;5114425;28;20031;-74
2024/03/18 13:08:19;;;;;;;11.02;3.67;;;18.50;85.40;;;;;;5114498;28;20032;-73
2024/03/18 13:10:46;;;;;;;17.15;4.03;;;18.60;84.90;;;;;;5114389;28;20530;-75
2024/03/18 13:13:14;;;;;;;16.58;4.55;;;18.70;84.40;;;;;;5114863;28;20092;-75
2024/03/18 13:15:44;;;;;;;15.15;4.43;;;18.90;84.10;;;;;;5113657;28;20059;-73
2024/03/18 13:18:12;;;;;;;23.40;4.38;;;18.90;83.60;;;;;;5095537;28;20470;-77
2024/03/18 13:20:38;;;;;;;18.60;4.68;;;19.20;83.40;;;;;;5114059;28;20045;-77
2024/03/18 13:23:05;;;;;;;15.25;3.22;;;19.50;82.60;;;;;;5114704;28;20042;-74
2024/03/18 13:25:37;;;;;;;12.52;3.17;;;19.80;81.50;;;;;;5114171;28;20054;-73
2024/03/18 13:28:03;;;;;;;13.63;4.15;;;20.00;80.90;;;;;;5113799;28;20034;-76
2024/03/18 13:30:28;;;;;;;14.85;4.60;;;20.00;80.60;;;;;;5113605;28;20463;-75
2024/03/18 13:32:54;;;;;;;14.82;4.25;;;20.10;80.40;;;;;;5113775;28;20035;-72
2024/03/18 13:35:21;;;;;;;12.85;3.83;;;20.30;80.40;;;;;;5113765;28;20064;-72
2024/03/18 13:37:47;;;;;;;27.23;5.00;;;20.30;79.80;;;;;;5113877;28;20046;-72
2024/03/18 13:40:13;;;;;;;23.25;3.90;;;20.40;79.10;;;;;;5112203;28;20467;-78
2024/03/18 13:42:39;;;;;;;17.50;3.72;;;20.60;78.80;;;;;;5086313;28;20035;-73
2024/03/18 13:45:08;;;;;;;17.10;6.32;;;20.70;78.20;;;;;;5110578;27;20062;-73
2024/03/18 13:47:33;;;;;;;15.02;7.75;;;20.70;78.10;;;;;;5075028;28;20487;-75
2024/03/18 13:49:59;;;;;;;18.55;7.68;;;20.70;78.00;;;;;;5092584;28;20067;-74
2024/03/18 13:52:25;;;;;;;19.98;8.23;;;20.70;78.00;;;;;;5093029;28;20070;-75
2024/03/18 13:54:50;;;;;;;11.77;4.07;;;20.70;77.60;;;;;;5092931;28;20154;-75